sensor_id;sensor_type;location;lat;lon;timestamp;P1;durP1;ratioP1;P2;durP2;ratioP2
11086;SDS011;5597;47.588;9.642;2022-07-03T00:01:09;3.67;;;2.10;;
11086;SDS011;5597;47.588;9.642;2022-07-03T00:03:35;2.40;;;2.20;;
11086;SDS011;5597;47.588;9.642;2022-07-03T00:06:00;2.20;;;2.00;;
11086;SDS011;5597;47.588;9.642;2022-07-03T00:08:26;2.10;;;1.90;;
11086;SDS011;5597;47.588;9.642;2022-07-03T00:10:52;2.00;;;1.90;;
11086;SDS011;5597;47.588;9.642;2022-07-03T00:13:17;2.20;;;2.10;;
11086;SDS011;5597;47.588;9.642;2022-07-03T00:15:43;2.30;;;2.13;;
11086;SDS011;5597;47.588;9.642;2022-07-03T00:18:09;2.13;;;2.03;;
11086;SDS011;5597;47.588;9.642;2022-07-03T00:20:37;2.00;;;1.90;;
11086;SDS011;5597;47.588;9.642;2022-07-03T00:23:07;1.87;;;1.77;;
11086;SDS011;5597;47.588;9.642;2022-07-03T00:25:34;2.10;;;2.00;;
11086;SDS011;5597;47.588;9.642;2022-07-03T00:28:02;2.23;;;2.07;;
11086;SDS011;5597;47.588;9.642;2022-07-03T00:30:28;2.60;;;2.00;;
11086;SDS011;5597;47.588;9.642;2022-07-03T00:32:54;2.73;;;2.10;;
11086;SDS011;5597;47.588;9.642;2022-07-03T00:35:19;2.40;;;2.10;;
11086;SDS011;5597;47.588;9.642;2022-07-03T00:37:45;2.90;;;2.10;;
11086;SDS011;5597;47.588;9.642;2022-07-03T00:40:11;2.03;;;1.87;;
11086;SDS011;5597;47.588;9.642;2022-07-03T00:42:37;3.20;;;1.90;;
11086;SDS011;5597;47.588;9.642;2022-07-03T00:45:08;2.10;;;2.00;;
11086;SDS011;5597;47.588;9.642;2022-07-03T00:47:35;2.50;;;2.07;;
11086;SDS011;5597;47.588;9.642;2022-07-03T00:50:06;2.40;;;2.20;;
11086;SDS011;5597;47.588;9.642;2022-07-03T00:52:33;2.00;;;1.90;;
11086;SDS011;5597;47.588;9.642;2022-07-03T00:55:01;1.80;;;1.70;;
11086;SDS011;5597;47.588;9.642;2022-07-03T00:57:33;2.00;;;1.90;;
11086;SDS011;5597;47.588;9.642;2022-07-03T01:00:00;1.90;;;1.80;;
11086;SDS011;5597;47.588;9.642;2022-07-03T01:05:49;2.37;;;2.17;;
11086;SDS011;5597;47.588;9.642;2022-07-03T01:11:10;2.63;;;2.13;;
11086;SDS011;5597;47.588;9.642;2022-07-03T01:22:15;2.07;;;1.90;;
11086;SDS011;5597;47.588;9.642;2022-07-03T01:30:39;2.17;;;2.07;;
11086;SDS011;5597;47.588;9.642;2022-07-03T01:33:09;2.10;;;2.00;;
11086;SDS011;5597;47.588;9.642;2022-07-03T01:38:32;2.17;;;2.00;;
11086;SDS011;5597;47.588;9.642;2022-07-03T01:41:03;2.63;;;2.10;;
11086;SDS011;5597;47.588;9.642;2022-07-03T01:43:34;2.37;;;2.17;;
11086;SDS011;5597;47.588;9.642;2022-07-03T01:46:09;2.50;;;2.30;;
11086;SDS011;5597;47.588;9.642;2022-07-03T01:48:37;2.47;;;2.27;;
11086;SDS011;5597;47.588;9.642;2022-07-03T01:51:07;2.20;;;2.00;;
11086;SDS011;5597;47.588;9.642;2022-07-03T01:53:44;2.33;;;2.00;;
11086;SDS011;5597;47.588;9.642;2022-07-03T01:56:15;2.10;;;1.90;;
11086;SDS011;5597;47.588;9.642;2022-07-03T01:58:41;3.40;;;1.90;;
11086;SDS011;5597;47.588;9.642;2022-07-03T02:01:15;2.40;;;2.20;;
11086;SDS011;5597;47.588;9.642;2022-07-03T02:03:51;2.00;;;1.90;;
11086;SDS011;5597;47.588;9.642;2022-07-03T02:09:08;2.50;;;2.10;;
11086;SDS011;5597;47.588;9.642;2022-07-03T02:11:36;2.20;;;2.00;;
11086;SDS011;5597;47.588;9.642;2022-07-03T02:14:16;2.13;;;2.00;;
11086;SDS011;5597;47.588;9.642;2022-07-03T02:19:10;2.53;;;2.33;;
11086;SDS011;5597;47.588;9.642;2022-07-03T02:21:37;2.40;;;2.20;;
11086;SDS011;5597;47.588;9.642;2022-07-03T02:24:22;2.50;;;2.30;;
11086;SDS011;5597;47.588;9.642;2022-07-03T02:29:41;2.80;;;2.60;;
11086;SDS011;5597;47.588;9.642;2022-07-03T02:32:12;2.60;;;2.37;;
11086;SDS011;5597;47.588;9.642;2022-07-03T02:34:44;2.50;;;2.20;;
11086;SDS011;5597;47.588;9.642;2022-07-03T02:37:15;2.40;;;2.20;;
11086;SDS011;5597;47.588;9.642;2022-07-03T02:39:45;2.63;;;2.43;;
11086;SDS011;5597;47.588;9.642;2022-07-03T02:43:11;2.17;;;2.07;;
11086;SDS011;5597;47.588;9.642;2022-07-03T02:45:19;2.10;;;1.90;;
11086;SDS011;5597;47.588;9.642;2022-07-03T02:50:15;2.20;;;2.00;;
11086;SDS011;5597;47.588;9.642;2022-07-03T03:01:13;2.90;;;2.30;;
11086;SDS011;5597;47.588;9.642;2022-07-03T03:03:49;2.00;;;1.90;;
11086;SDS011;5597;47.588;9.642;2022-07-03T03:06:26;2.10;;;2.00;;
11086;SDS011;5597;47.588;9.642;2022-07-03T03:09:00;2.77;;;2.27;;
11086;SDS011;5597;47.588;9.642;2022-07-03T03:11:40;2.60;;;2.40;;
11086;SDS011;5597;47.588;9.642;2022-07-03T03:14:08;2.10;;;2.00;;
11086;SDS011;5597;47.588;9.642;2022-07-03T03:16:37;2.27;;;2.07;;
11086;SDS011;5597;47.588;9.642;2022-07-03T03:19:10;2.20;;;2.00;;
11086;SDS011;5597;47.588;9.642;2022-07-03T03:21:37;1.90;;;1.80;;
11086;SDS011;5597;47.588;9.642;2022-07-03T03:24:16;2.30;;;2.00;;
11086;SDS011;5597;47.588;9.642;2022-07-03T03:26:43;1.77;;;1.67;;
11086;SDS011;5597;47.588;9.642;2022-07-03T03:29:09;1.87;;;1.77;;
11086;SDS011;5597;47.588;9.642;2022-07-03T03:31:34;2.07;;;1.83;;
11086;SDS011;5597;47.588;9.642;2022-07-03T03:34:00;2.50;;;2.30;;
11086;SDS011;5597;47.588;9.642;2022-07-03T03:36:27;2.10;;;2.00;;
11086;SDS011;5597;47.588;9.642;2022-07-03T03:38:54;2.30;;;2.10;;
11086;SDS011;5597;47.588;9.642;2022-07-03T03:41:20;2.30;;;2.10;;
11086;SDS011;5597;47.588;9.642;2022-07-03T03:43:46;2.17;;;2.07;;
11086;SDS011;5597;47.588;9.642;2022-07-03T03:46:12;2.50;;;2.10;;
11086;SDS011;5597;47.588;9.642;2022-07-03T03:48:39;3.43;;;2.73;;
11086;SDS011;5597;47.588;9.642;2022-07-03T03:51:05;2.80;;;2.60;;
11086;SDS011;5597;47.588;9.642;2022-07-03T03:53:32;2.73;;;2.53;;
11086;SDS011;5597;47.588;9.642;2022-07-03T03:56:02;2.60;;;2.40;;
11086;SDS011;5597;47.588;9.642;2022-07-03T03:58:31;2.67;;;2.30;;
11086;SDS011;5597;47.588;9.642;2022-07-03T04:00:59;2.50;;;2.30;;
11086;SDS011;5597;47.588;9.642;2022-07-03T04:03:26;2.80;;;2.60;;
11086;SDS011;5597;47.588;9.642;2022-07-03T04:05:53;2.97;;;2.47;;
11086;SDS011;5597;47.588;9.642;2022-07-03T04:08:19;2.57;;;2.37;;
11086;SDS011;5597;47.588;9.642;2022-07-03T04:10:46;2.30;;;2.20;;
11086;SDS011;5597;47.588;9.642;2022-07-03T04:13:12;2.00;;;1.90;;
11086;SDS011;5597;47.588;9.642;2022-07-03T04:15:38;2.33;;;2.17;;
11086;SDS011;5597;47.588;9.642;2022-07-03T04:18:04;2.60;;;2.40;;
11086;SDS011;5597;47.588;9.642;2022-07-03T04:20:29;2.60;;;2.40;;
11086;SDS011;5597;47.588;9.642;2022-07-03T04:22:56;2.50;;;2.30;;
11086;SDS011;5597;47.588;9.642;2022-07-03T04:25:24;3.40;;;2.50;;
11086;SDS011;5597;47.588;9.642;2022-07-03T04:27:50;2.57;;;2.37;;
11086;SDS011;5597;47.588;9.642;2022-07-03T04:30:16;2.80;;;2.53;;
11086;SDS011;5597;47.588;9.642;2022-07-03T04:32:42;2.63;;;2.37;;
11086;SDS011;5597;47.588;9.642;2022-07-03T04:35:08;4.23;;;2.60;;
11086;SDS011;5597;47.588;9.642;2022-07-03T04:37:34;2.40;;;2.20;;
11086;SDS011;5597;47.588;9.642;2022-07-03T04:39:59;2.63;;;2.20;;
11086;SDS011;5597;47.588;9.642;2022-07-03T04:42:25;2.50;;;2.30;;
11086;SDS011;5597;47.588;9.642;2022-07-03T04:44:51;2.70;;;2.50;;
11086;SDS011;5597;47.588;9.642;2022-07-03T04:47:16;2.60;;;2.40;;
11086;SDS011;5597;47.588;9.642;2022-07-03T04:49:42;2.70;;;2.50;;
11086;SDS011;5597;47.588;9.642;2022-07-03T04:52:08;2.50;;;2.30;;
11086;SDS011;5597;47.588;9.642;2022-07-03T04:54:34;2.80;;;2.60;;
11086;SDS011;5597;47.588;9.642;2022-07-03T04:57:00;2.40;;;2.20;;
11086;SDS011;5597;47.588;9.642;2022-07-03T04:59:25;2.93;;;2.73;;
11086;SDS011;5597;47.588;9.642;2022-07-03T05:01:51;2.80;;;2.60;;
11086;SDS011;5597;47.588;9.642;2022-07-03T05:04:17;4.20;;;2.90;;
11086;SDS011;5597;47.588;9.642;2022-07-03T05:06:43;3.10;;;2.90;;
11086;SDS011;5597;47.588;9.642;2022-07-03T05:09:08;3.50;;;3.20;;
11086;SDS011;5597;47.588;9.642;2022-07-03T05:11:34;3.20;;;3.00;;
11086;SDS011;5597;47.588;9.642;2022-07-03T05:14:00;3.33;;;3.00;;
11086;SDS011;5597;47.588;9.642;2022-07-03T05:16:27;3.17;;;2.87;;
11086;SDS011;5597;47.588;9.642;2022-07-03T05:18:52;2.80;;;2.60;;
11086;SDS011;5597;47.588;9.642;2022-07-03T05:21:18;2.60;;;2.40;;
11086;SDS011;5597;47.588;9.642;2022-07-03T05:23:44;2.50;;;2.30;;
11086;SDS011;5597;47.588;9.642;2022-07-03T05:26:09;2.80;;;2.60;;
11086;SDS011;5597;47.588;9.642;2022-07-03T05:28:35;2.93;;;2.73;;
11086;SDS011;5597;47.588;9.642;2022-07-03T05:31:00;2.60;;;2.40;;
11086;SDS011;5597;47.588;9.642;2022-07-03T05:33:26;2.40;;;2.20;;
11086;SDS011;5597;47.588;9.642;2022-07-03T05:35:52;2.80;;;2.60;;
11086;SDS011;5597;47.588;9.642;2022-07-03T05:38:19;2.60;;;2.40;;
11086;SDS011;5597;47.588;9.642;2022-07-03T05:41:04;2.80;;;2.60;;
11086;SDS011;5597;47.588;9.642;2022-07-03T05:43:29;2.90;;;2.70;;
11086;SDS011;5597;47.588;9.642;2022-07-03T05:45:55;2.87;;;2.60;;
11086;SDS011;5597;47.588;9.642;2022-07-03T05:48:21;2.77;;;2.40;;
11086;SDS011;5597;47.588;9.642;2022-07-03T05:50:46;3.07;;;2.63;;
11086;SDS011;5597;47.588;9.642;2022-07-03T05:53:12;2.40;;;2.20;;
11086;SDS011;5597;47.588;9.642;2022-07-03T05:55:37;2.80;;;2.60;;
11086;SDS011;5597;47.588;9.642;2022-07-03T05:58:03;2.80;;;2.60;;
11086;SDS011;5597;47.588;9.642;2022-07-03T06:00:29;2.60;;;2.40;;
11086;SDS011;5597;47.588;9.642;2022-07-03T06:02:54;2.60;;;2.40;;
11086;SDS011;5597;47.588;9.642;2022-07-03T06:05:20;2.50;;;2.30;;
11086;SDS011;5597;47.588;9.642;2022-07-03T06:07:45;2.30;;;2.13;;
11086;SDS011;5597;47.588;9.642;2022-07-03T06:10:11;2.57;;;2.37;;
11086;SDS011;5597;47.588;9.642;2022-07-03T06:12:37;2.50;;;2.30;;
11086;SDS011;5597;47.588;9.642;2022-07-03T06:15:03;2.53;;;2.33;;
11086;SDS011;5597;47.588;9.642;2022-07-03T06:17:29;2.70;;;2.50;;
11086;SDS011;5597;47.588;9.642;2022-07-03T06:19:54;2.40;;;2.20;;
11086;SDS011;5597;47.588;9.642;2022-07-03T06:22:20;2.30;;;2.10;;
11086;SDS011;5597;47.588;9.642;2022-07-03T06:24:45;2.30;;;2.10;;
11086;SDS011;5597;47.588;9.642;2022-07-03T06:27:11;2.37;;;2.17;;
11086;SDS011;5597;47.588;9.642;2022-07-03T06:29:36;2.47;;;2.27;;
11086;SDS011;5597;47.588;9.642;2022-07-03T06:32:02;2.10;;;2.00;;
11086;SDS011;5597;47.588;9.642;2022-07-03T06:34:28;2.30;;;2.20;;
11086;SDS011;5597;47.588;9.642;2022-07-03T06:36:53;3.17;;;2.00;;
11086;SDS011;5597;47.588;9.642;2022-07-03T06:39:19;2.53;;;2.00;;
11086;SDS011;5597;47.588;9.642;2022-07-03T06:41:44;2.47;;;2.27;;
11086;SDS011;5597;47.588;9.642;2022-07-03T06:44:10;2.50;;;2.30;;
11086;SDS011;5597;47.588;9.642;2022-07-03T06:46:35;2.43;;;2.00;;
11086;SDS011;5597;47.588;9.642;2022-07-03T06:49:01;2.10;;;1.90;;
11086;SDS011;5597;47.588;9.642;2022-07-03T06:51:27;2.27;;;2.07;;
11086;SDS011;5597;47.588;9.642;2022-07-03T06:53:52;2.20;;;2.00;;
11086;SDS011;5597;47.588;9.642;2022-07-03T06:56:18;2.43;;;2.20;;
11086;SDS011;5597;47.588;9.642;2022-07-03T06:58:43;2.13;;;1.93;;
11086;SDS011;5597;47.588;9.642;2022-07-03T07:01:09;2.30;;;2.10;;
11086;SDS011;5597;47.588;9.642;2022-07-03T07:03:35;3.03;;;2.10;;
11086;SDS011;5597;47.588;9.642;2022-07-03T07:06:00;2.30;;;2.10;;
11086;SDS011;5597;47.588;9.642;2022-07-03T07:08:26;2.10;;;2.00;;
11086;SDS011;5597;47.588;9.642;2022-07-03T07:10:51;2.30;;;2.10;;
11086;SDS011;5597;47.588;9.642;2022-07-03T07:13:17;2.20;;;2.00;;
11086;SDS011;5597;47.588;9.642;2022-07-03T07:15:42;2.00;;;1.90;;
11086;SDS011;5597;47.588;9.642;2022-07-03T07:18:08;2.10;;;2.00;;
11086;SDS011;5597;47.588;9.642;2022-07-03T07:20:33;1.80;;;1.70;;
11086;SDS011;5597;47.588;9.642;2022-07-03T07:22:59;2.10;;;2.00;;
11086;SDS011;5597;47.588;9.642;2022-07-03T07:25:25;2.10;;;1.90;;
11086;SDS011;5597;47.588;9.642;2022-07-03T07:27:50;1.90;;;1.80;;
11086;SDS011;5597;47.588;9.642;2022-07-03T07:30:16;2.03;;;1.93;;
11086;SDS011;5597;47.588;9.642;2022-07-03T07:32:41;2.23;;;2.03;;
11086;SDS011;5597;47.588;9.642;2022-07-03T07:35:07;2.33;;;1.90;;
11086;SDS011;5597;47.588;9.642;2022-07-03T07:37:33;2.80;;;1.90;;
11086;SDS011;5597;47.588;9.642;2022-07-03T07:39:58;2.37;;;2.17;;
11086;SDS011;5597;47.588;9.642;2022-07-03T07:42:24;2.20;;;2.00;;
11086;SDS011;5597;47.588;9.642;2022-07-03T07:44:50;2.00;;;1.90;;
11086;SDS011;5597;47.588;9.642;2022-07-03T07:47:15;2.33;;;1.90;;
11086;SDS011;5597;47.588;9.642;2022-07-03T07:49:41;1.90;;;1.80;;
11086;SDS011;5597;47.588;9.642;2022-07-03T07:52:07;2.63;;;1.90;;
11086;SDS011;5597;47.588;9.642;2022-07-03T07:54:32;2.47;;;1.87;;
11086;SDS011;5597;47.588;9.642;2022-07-03T07:56:58;2.33;;;2.00;;
11086;SDS011;5597;47.588;9.642;2022-07-03T07:59:23;2.00;;;1.80;;
11086;SDS011;5597;47.588;9.642;2022-07-03T08:01:49;2.10;;;1.83;;
11086;SDS011;5597;47.588;9.642;2022-07-03T08:04:33;2.00;;;1.83;;
11086;SDS011;5597;47.588;9.642;2022-07-03T08:07:17;1.60;;;1.50;;
11086;SDS011;5597;47.588;9.642;2022-07-03T08:09:43;1.90;;;1.80;;
11086;SDS011;5597;47.588;9.642;2022-07-03T08:12:09;2.73;;;1.83;;
11086;SDS011;5597;47.588;9.642;2022-07-03T08:14:34;2.00;;;1.77;;
11086;SDS011;5597;47.588;9.642;2022-07-03T08:17:00;2.00;;;1.80;;
11086;SDS011;5597;47.588;9.642;2022-07-03T08:19:26;1.60;;;1.50;;
11086;SDS011;5597;47.588;9.642;2022-07-03T08:21:51;1.57;;;1.47;;
11086;SDS011;5597;47.588;9.642;2022-07-03T08:24:17;1.73;;;1.63;;
11086;SDS011;5597;47.588;9.642;2022-07-03T08:26:42;1.60;;;1.50;;
11086;SDS011;5597;47.588;9.642;2022-07-03T08:29:08;1.70;;;1.60;;
11086;SDS011;5597;47.588;9.642;2022-07-03T08:31:34;1.70;;;1.60;;
11086;SDS011;5597;47.588;9.642;2022-07-03T08:34:00;1.80;;;1.63;;
11086;SDS011;5597;47.588;9.642;2022-07-03T08:36:25;2.83;;;1.80;;
11086;SDS011;5597;47.588;9.642;2022-07-03T08:38:51;1.93;;;1.83;;
11086;SDS011;5597;47.588;9.642;2022-07-03T08:41:17;2.90;;;1.63;;
11086;SDS011;5597;47.588;9.642;2022-07-03T08:43:45;1.80;;;1.70;;
11086;SDS011;5597;47.588;9.642;2022-07-03T08:46:11;1.97;;;1.67;;
11086;SDS011;5597;47.588;9.642;2022-07-03T08:48:37;1.83;;;1.70;;
11086;SDS011;5597;47.588;9.642;2022-07-03T08:51:02;1.70;;;1.60;;
11086;SDS011;5597;47.588;9.642;2022-07-03T08:53:28;1.87;;;1.77;;
11086;SDS011;5597;47.588;9.642;2022-07-03T08:55:55;3.83;;;1.80;;
11086;SDS011;5597;47.588;9.642;2022-07-03T08:58:23;1.40;;;1.30;;
11086;SDS011;5597;47.588;9.642;2022-07-03T09:00:53;2.27;;;1.70;;
11086;SDS011;5597;47.588;9.642;2022-07-03T09:03:18;1.40;;;1.30;;
11086;SDS011;5597;47.588;9.642;2022-07-03T09:05:47;1.50;;;1.40;;
11086;SDS011;5597;47.588;9.642;2022-07-03T09:08:15;1.53;;;1.43;;
11086;SDS011;5597;47.588;9.642;2022-07-03T09:10:41;2.50;;;1.60;;
11086;SDS011;5597;47.588;9.642;2022-07-03T09:13:12;1.83;;;1.50;;
11086;SDS011;5597;47.588;9.642;2022-07-03T09:15:37;1.80;;;1.50;;
11086;SDS011;5597;47.588;9.642;2022-07-03T09:18:07;1.60;;;1.50;;
11086;SDS011;5597;47.588;9.642;2022-07-03T09:20:40;1.50;;;1.40;;
11086;SDS011;5597;47.588;9.642;2022-07-03T09:25:49;1.37;;;1.27;;
11086;SDS011;5597;47.588;9.642;2022-07-03T09:28:22;1.23;;;1.20;;
11086;SDS011;5597;47.588;9.642;2022-07-03T09:30:55;1.67;;;1.57;;
11086;SDS011;5597;47.588;9.642;2022-07-03T09:33:25;1.40;;;1.30;;
11086;SDS011;5597;47.588;9.642;2022-07-03T09:35:54;1.50;;;1.40;;
11086;SDS011;5597;47.588;9.642;2022-07-03T09:38:21;1.37;;;1.27;;
11086;SDS011;5597;47.588;9.642;2022-07-03T09:40:54;1.20;;;1.10;;
11086;SDS011;5597;47.588;9.642;2022-07-03T09:43:23;1.37;;;1.10;;
11086;SDS011;5597;47.588;9.642;2022-07-03T09:48:21;1.30;;;1.20;;
11086;SDS011;5597;47.588;9.642;2022-07-03T09:50:47;1.40;;;1.30;;
11086;SDS011;5597;47.588;9.642;2022-07-03T09:53:13;1.23;;;1.13;;
11086;SDS011;5597;47.588;9.642;2022-07-03T09:55:38;1.47;;;1.37;;
11086;SDS011;5597;47.588;9.642;2022-07-03T09:58:04;1.97;;;1.40;;
11086;SDS011;5597;47.588;9.642;2022-07-03T10:00:30;1.37;;;1.27;;
11086;SDS011;5597;47.588;9.642;2022-07-03T10:03:00;1.40;;;1.30;;
11086;SDS011;5597;47.588;9.642;2022-07-03T10:05:32;1.53;;;1.43;;
11086;SDS011;5597;47.588;9.642;2022-07-03T10:08:05;1.30;;;1.20;;
11086;SDS011;5597;47.588;9.642;2022-07-03T10:10:44;1.40;;;1.30;;
11086;SDS011;5597;47.588;9.642;2022-07-03T10:13:11;2.07;;;1.20;;
11086;SDS011;5597;47.588;9.642;2022-07-03T10:15:38;1.20;;;1.10;;
11086;SDS011;5597;47.588;9.642;2022-07-03T10:18:05;1.30;;;1.20;;
11086;SDS011;5597;47.588;9.642;2022-07-03T10:20:40;1.30;;;1.20;;
11086;SDS011;5597;47.588;9.642;2022-07-03T10:23:16;4.20;;;1.40;;
11086;SDS011;5597;47.588;9.642;2022-07-03T10:25:45;1.00;;;0.90;;
11086;SDS011;5597;47.588;9.642;2022-07-03T10:28:12;1.43;;;1.17;;
11086;SDS011;5597;47.588;9.642;2022-07-03T10:30:39;1.40;;;1.30;;
11086;SDS011;5597;47.588;9.642;2022-07-03T10:33:07;1.30;;;1.20;;
11086;SDS011;5597;47.588;9.642;2022-07-03T10:43:22;1.07;;;0.97;;
11086;SDS011;5597;47.588;9.642;2022-07-03T10:46:11;1.80;;;1.10;;
11086;SDS011;5597;47.588;9.642;2022-07-03T10:49:23;2.37;;;0.90;;
11086;SDS011;5597;47.588;9.642;2022-07-03T10:54:14;0.80;;;0.80;;
11086;SDS011;5597;47.588;9.642;2022-07-03T11:07:27;0.87;;;0.80;;
11086;SDS011;5597;47.588;9.642;2022-07-03T11:15:24;2.00;;;0.70;;
11086;SDS011;5597;47.588;9.642;2022-07-03T11:36:10;0.63;;;0.60;;
11086;SDS011;5597;47.588;9.642;2022-07-03T11:38:36;0.70;;;0.70;;
11086;SDS011;5597;47.588;9.642;2022-07-03T11:41:03;0.90;;;0.67;;
11086;SDS011;5597;47.588;9.642;2022-07-03T11:43:32;0.60;;;0.60;;
11086;SDS011;5597;47.588;9.642;2022-07-03T11:45:59;0.60;;;0.60;;
11086;SDS011;5597;47.588;9.642;2022-07-03T11:48:25;1.00;;;0.70;;
11086;SDS011;5597;47.588;9.642;2022-07-03T11:50:51;0.77;;;0.77;;
11086;SDS011;5597;47.588;9.642;2022-07-03T11:53:25;0.87;;;0.80;;
11086;SDS011;5597;47.588;9.642;2022-07-03T11:55:55;0.70;;;0.70;;
11086;SDS011;5597;47.588;9.642;2022-07-03T11:58:22;0.63;;;0.63;;
11086;SDS011;5597;47.588;9.642;2022-07-03T12:00:49;0.60;;;0.60;;
11086;SDS011;5597;47.588;9.642;2022-07-03T12:03:22;1.10;;;0.70;;
11086;SDS011;5597;47.588;9.642;2022-07-03T12:05:57;0.70;;;0.70;;
11086;SDS011;5597;47.588;9.642;2022-07-03T12:08:32;1.13;;;0.90;;
11086;SDS011;5597;47.588;9.642;2022-07-03T12:11:02;0.70;;;0.70;;
11086;SDS011;5597;47.588;9.642;2022-07-03T12:13:31;0.80;;;0.70;;
11086;SDS011;5597;47.588;9.642;2022-07-03T12:16:11;0.63;;;0.63;;
11086;SDS011;5597;47.588;9.642;2022-07-03T12:18:44;1.70;;;0.67;;
11086;SDS011;5597;47.588;9.642;2022-07-03T12:21:18;0.70;;;0.70;;
11086;SDS011;5597;47.588;9.642;2022-07-03T12:23:46;0.70;;;0.70;;
11086;SDS011;5597;47.588;9.642;2022-07-03T12:26:12;0.90;;;0.83;;
11086;SDS011;5597;47.588;9.642;2022-07-03T12:28:38;1.07;;;0.77;;
11086;SDS011;5597;47.588;9.642;2022-07-03T12:31:04;0.90;;;0.70;;
11086;SDS011;5597;47.588;9.642;2022-07-03T12:33:31;1.63;;;0.70;;
11086;SDS011;5597;47.588;9.642;2022-07-03T12:36:06;0.90;;;0.77;;
11086;SDS011;5597;47.588;9.642;2022-07-03T12:38:35;0.67;;;0.67;;
11086;SDS011;5597;47.588;9.642;2022-07-03T12:41:02;0.80;;;0.80;;
11086;SDS011;5597;47.588;9.642;2022-07-03T12:43:36;1.07;;;0.80;;
11086;SDS011;5597;47.588;9.642;2022-07-03T12:46:15;0.60;;;0.60;;
11086;SDS011;5597;47.588;9.642;2022-07-03T12:48:52;1.40;;;0.80;;
11086;SDS011;5597;47.588;9.642;2022-07-03T12:54:13;0.60;;;0.60;;
11086;SDS011;5597;47.588;9.642;2022-07-03T12:57:04;1.13;;;0.80;;
11086;SDS011;5597;47.588;9.642;2022-07-03T13:00:03;0.80;;;0.73;;
11086;SDS011;5597;47.588;9.642;2022-07-03T13:02:31;0.80;;;0.80;;
11086;SDS011;5597;47.588;9.642;2022-07-03T13:04:58;2.13;;;0.80;;
11086;SDS011;5597;47.588;9.642;2022-07-03T13:07:28;1.20;;;1.00;;
11086;SDS011;5597;47.588;9.642;2022-07-03T13:10:00;1.20;;;1.00;;
11086;SDS011;5597;47.588;9.642;2022-07-03T13:12:28;2.03;;;1.00;;
11086;SDS011;5597;47.588;9.642;2022-07-03T13:14:57;0.80;;;0.80;;
11086;SDS011;5597;47.588;9.642;2022-07-03T13:17:23;0.83;;;0.83;;
11086;SDS011;5597;47.588;9.642;2022-07-03T13:20:08;1.40;;;0.80;;
11086;SDS011;5597;47.588;9.642;2022-07-03T13:22:33;0.70;;;0.70;;
11086;SDS011;5597;47.588;9.642;2022-07-03T13:24:59;0.90;;;0.80;;
11086;SDS011;5597;47.588;9.642;2022-07-03T13:27:24;1.17;;;1.00;;
11086;SDS011;5597;47.588;9.642;2022-07-03T13:29:50;1.00;;;0.90;;
11086;SDS011;5597;47.588;9.642;2022-07-03T13:32:16;1.20;;;0.97;;
11086;SDS011;5597;47.588;9.642;2022-07-03T13:34:41;2.20;;;0.83;;
11086;SDS011;5597;47.588;9.642;2022-07-03T13:37:07;1.10;;;1.00;;
11086;SDS011;5597;47.588;9.642;2022-07-03T13:39:32;2.00;;;1.00;;
11086;SDS011;5597;47.588;9.642;2022-07-03T13:41:58;1.00;;;0.90;;
11086;SDS011;5597;47.588;9.642;2022-07-03T13:44:23;1.27;;;1.00;;
11086;SDS011;5597;47.588;9.642;2022-07-03T13:46:49;1.53;;;0.80;;
11086;SDS011;5597;47.588;9.642;2022-07-03T13:49:14;0.97;;;0.87;;
11086;SDS011;5597;47.588;9.642;2022-07-03T13:51:40;1.13;;;1.03;;
11086;SDS011;5597;47.588;9.642;2022-07-03T13:54:06;4.07;;;1.00;;
11086;SDS011;5597;47.588;9.642;2022-07-03T13:56:31;1.63;;;1.00;;
11086;SDS011;5597;47.588;9.642;2022-07-03T13:58:57;1.17;;;0.90;;
11086;SDS011;5597;47.588;9.642;2022-07-03T14:01:22;1.00;;;0.90;;
11086;SDS011;5597;47.588;9.642;2022-07-03T14:03:48;1.03;;;1.00;;
11086;SDS011;5597;47.588;9.642;2022-07-03T14:06:14;1.10;;;1.00;;
11086;SDS011;5597;47.588;9.642;2022-07-03T14:08:40;1.10;;;1.00;;
11086;SDS011;5597;47.588;9.642;2022-07-03T14:11:05;1.53;;;1.00;;
11086;SDS011;5597;47.588;9.642;2022-07-03T14:13:31;1.30;;;1.20;;
11086;SDS011;5597;47.588;9.642;2022-07-03T14:15:56;0.90;;;0.90;;
11086;SDS011;5597;47.588;9.642;2022-07-03T14:18:24;1.97;;;1.00;;
11086;SDS011;5597;47.588;9.642;2022-07-03T14:20:49;1.80;;;0.90;;
11086;SDS011;5597;47.588;9.642;2022-07-03T14:23:15;0.90;;;0.90;;
11086;SDS011;5597;47.588;9.642;2022-07-03T14:25:41;1.27;;;1.00;;
11086;SDS011;5597;47.588;9.642;2022-07-03T14:28:06;1.63;;;0.93;;
11086;SDS011;5597;47.588;9.642;2022-07-03T14:30:51;1.30;;;1.20;;
11086;SDS011;5597;47.588;9.642;2022-07-03T14:33:35;2.03;;;1.10;;
11086;SDS011;5597;47.588;9.642;2022-07-03T14:36:00;1.10;;;1.00;;
11086;SDS011;5597;47.588;9.642;2022-07-03T14:38:26;2.17;;;1.10;;
11086;SDS011;5597;47.588;9.642;2022-07-03T14:40:51;1.77;;;1.20;;
11086;SDS011;5597;47.588;9.642;2022-07-03T14:43:17;1.17;;;1.07;;
11086;SDS011;5597;47.588;9.642;2022-07-03T14:45:43;1.27;;;1.00;;
11086;SDS011;5597;47.588;9.642;2022-07-03T14:48:08;1.20;;;1.10;;
11086;SDS011;5597;47.588;9.642;2022-07-03T14:50:34;2.43;;;1.20;;
11086;SDS011;5597;47.588;9.642;2022-07-03T14:53:00;1.20;;;1.10;;
11086;SDS011;5597;47.588;9.642;2022-07-03T14:55:35;1.20;;;1.10;;
11086;SDS011;5597;47.588;9.642;2022-07-03T15:00:30;1.47;;;1.13;;
11086;SDS011;5597;47.588;9.642;2022-07-03T15:03:05;2.37;;;1.20;;
11086;SDS011;5597;47.588;9.642;2022-07-03T15:05:33;3.20;;;1.53;;
11086;SDS011;5597;47.588;9.642;2022-07-03T15:10:53;1.43;;;1.10;;
11086;SDS011;5597;47.588;9.642;2022-07-03T15:13:20;3.27;;;1.27;;
11086;SDS011;5597;47.588;9.642;2022-07-03T15:15:49;1.57;;;1.30;;
11086;SDS011;5597;47.588;9.642;2022-07-03T15:18:15;1.20;;;1.10;;
11086;SDS011;5597;47.588;9.642;2022-07-03T15:20:42;1.33;;;1.23;;
11086;SDS011;5597;47.588;9.642;2022-07-03T15:23:09;2.20;;;1.27;;
11086;SDS011;5597;47.588;9.642;2022-07-03T15:25:35;1.90;;;1.10;;
11086;SDS011;5597;47.588;9.642;2022-07-03T15:28:03;1.40;;;1.30;;
11086;SDS011;5597;47.588;9.642;2022-07-03T15:30:30;1.80;;;1.20;;
11086;SDS011;5597;47.588;9.642;2022-07-03T15:32:56;1.20;;;1.10;;
11086;SDS011;5597;47.588;9.642;2022-07-03T15:35:23;1.30;;;1.20;;
11086;SDS011;5597;47.588;9.642;2022-07-03T15:46:03;1.93;;;1.40;;
11086;SDS011;5597;47.588;9.642;2022-07-03T15:48:44;1.47;;;1.30;;
11086;SDS011;5597;47.588;9.642;2022-07-03T15:54:03;1.80;;;1.40;;
11086;SDS011;5597;47.588;9.642;2022-07-03T15:56:32;1.80;;;1.17;;
11086;SDS011;5597;47.588;9.642;2022-07-03T15:59:02;1.50;;;1.30;;
11086;SDS011;5597;47.588;9.642;2022-07-03T16:01:30;1.40;;;1.30;;
11086;SDS011;5597;47.588;9.642;2022-07-03T16:04:35;1.30;;;1.20;;
11086;SDS011;5597;47.588;9.642;2022-07-03T16:07:08;1.50;;;1.30;;
11086;SDS011;5597;47.588;9.642;2022-07-03T16:09:35;1.47;;;1.30;;
11086;SDS011;5597;47.588;9.642;2022-07-03T16:12:01;1.33;;;1.17;;
11086;SDS011;5597;47.588;9.642;2022-07-03T16:14:30;1.50;;;1.40;;
11086;SDS011;5597;47.588;9.642;2022-07-03T16:17:00;1.40;;;1.30;;
11086;SDS011;5597;47.588;9.642;2022-07-03T16:19:29;1.40;;;1.30;;
11086;SDS011;5597;47.588;9.642;2022-07-03T16:21:56;2.07;;;1.50;;
11086;SDS011;5597;47.588;9.642;2022-07-03T16:24:25;1.20;;;1.10;;
11086;SDS011;5597;47.588;9.642;2022-07-03T16:26:51;1.40;;;1.30;;
11086;SDS011;5597;47.588;9.642;2022-07-03T16:29:17;1.40;;;1.30;;
11086;SDS011;5597;47.588;9.642;2022-07-03T16:31:44;2.43;;;1.30;;
11086;SDS011;5597;47.588;9.642;2022-07-03T16:36:58;2.70;;;1.60;;
11086;SDS011;5597;47.588;9.642;2022-07-03T16:39:33;1.50;;;1.40;;
11086;SDS011;5597;47.588;9.642;2022-07-03T16:42:00;1.30;;;1.20;;
11086;SDS011;5597;47.588;9.642;2022-07-03T16:44:28;1.20;;;1.10;;
11086;SDS011;5597;47.588;9.642;2022-07-03T16:46:58;1.53;;;1.40;;
11086;SDS011;5597;47.588;9.642;2022-07-03T16:49:25;1.43;;;1.33;;
11086;SDS011;5597;47.588;9.642;2022-07-03T16:51:56;1.43;;;1.20;;
11086;SDS011;5597;47.588;9.642;2022-07-03T16:54:35;1.70;;;1.60;;
11086;SDS011;5597;47.588;9.642;2022-07-03T16:57:02;2.53;;;1.40;;
11086;SDS011;5597;47.588;9.642;2022-07-03T16:59:32;1.60;;;1.50;;
11086;SDS011;5597;47.588;9.642;2022-07-03T17:01:58;1.50;;;1.33;;